sensor_id;sensor_type;location;lat;lon;timestamp;P1;durP1;ratioP1;P2;durP2;ratioP2
71360;SDS011;59166;48.908;1.870;2022-12-07T00:00:46;52.20;;;18.57;;
71360;SDS011;59166;48.908;1.870;2022-12-07T00:05:48;49.88;;;17.48;;
71360;SDS011;59166;48.908;1.870;2022-12-07T00:10:49;46.10;;;14.50;;
71360;SDS011;59166;48.908;1.870;2022-12-07T00:15:49;38.83;;;13.47;;
71360;SDS011;59166;48.908;1.870;2022-12-07T00:20:52;39.63;;;13.60;;
71360;SDS011;59166;48.908;1.870;2022-12-07T00:25:53;21.67;;;7.57;;
71360;SDS011;59166;48.908;1.870;2022-12-07T00:30:59;44.35;;;15.38;;
71360;SDS011;59166;48.908;1.870;2022-12-07T00:36:03;41.40;;;15.33;;
71360;SDS011;59166;48.908;1.870;2022-12-07T00:41:06;47.97;;;16.80;;
71360;SDS011;59166;48.908;1.870;2022-12-07T00:46:10;36.97;;;13.90;;
71360;SDS011;59166;48.908;1.870;2022-12-07T00:51:13;40.10;;;14.17;;
71360;SDS011;59166;48.908;1.870;2022-12-07T00:56:16;35.53;;;13.23;;
71360;SDS011;59166;48.908;1.870;2022-12-07T01:01:18;33.90;;;13.15;;
71360;SDS011;59166;48.908;1.870;2022-12-07T01:06:21;59.53;;;12.05;;
71360;SDS011;59166;48.908;1.870;2022-12-07T01:11:23;43.77;;;11.03;;
71360;SDS011;59166;48.908;1.870;2022-12-07T01:16:25;35.50;;;11.20;;
71360;SDS011;59166;48.908;1.870;2022-12-07T01:21:30;33.35;;;10.95;;
71360;SDS011;59166;48.908;1.870;2022-12-07T01:26:32;33.93;;;11.30;;
71360;SDS011;59166;48.908;1.870;2022-12-07T01:31:33;28.70;;;10.35;;
71360;SDS011;59166;48.908;1.870;2022-12-07T01:36:35;28.00;;;9.20;;
71360;SDS011;59166;48.908;1.870;2022-12-07T01:41:37;31.80;;;10.37;;
71360;SDS011;59166;48.908;1.870;2022-12-07T01:46:40;30.00;;;10.13;;
71360;SDS011;59166;48.908;1.870;2022-12-07T01:51:43;27.20;;;9.65;;
71360;SDS011;59166;48.908;1.870;2022-12-07T01:56:48;28.38;;;9.68;;
71360;SDS011;59166;48.908;1.870;2022-12-07T02:01:51;28.77;;;9.03;;
71360;SDS011;59166;48.908;1.870;2022-12-07T02:06:55;28.15;;;9.18;;
71360;SDS011;59166;48.908;1.870;2022-12-07T02:11:57;27.45;;;9.45;;
71360;SDS011;59166;48.908;1.870;2022-12-07T02:17:02;24.33;;;9.13;;
71360;SDS011;59166;48.908;1.870;2022-12-07T02:22:12;25.13;;;8.63;;
71360;SDS011;59166;48.908;1.870;2022-12-07T02:32:48;25.67;;;8.63;;
71360;SDS011;59166;48.908;1.870;2022-12-07T02:37:58;23.60;;;8.65;;
71360;SDS011;59166;48.908;1.870;2022-12-07T02:43:03;24.48;;;9.52;;
71360;SDS011;59166;48.908;1.870;2022-12-07T02:48:09;27.30;;;9.33;;
71360;SDS011;59166;48.908;1.870;2022-12-07T02:53:29;55.80;;;9.85;;
71360;SDS011;59166;48.908;1.870;2022-12-07T02:58:38;50.83;;;9.43;;
71360;SDS011;59166;48.908;1.870;2022-12-07T03:03:55;32.80;;;8.27;;
71360;SDS011;59166;48.908;1.870;2022-12-07T03:09:07;24.87;;;9.07;;
71360;SDS011;59166;48.908;1.870;2022-12-07T03:14:15;41.58;;;8.20;;
71360;SDS011;59166;48.908;1.870;2022-12-07T03:19:23;22.75;;;8.57;;
71360;SDS011;59166;48.908;1.870;2022-12-07T03:24:45;27.80;;;8.40;;
71360;SDS011;59166;48.908;1.870;2022-12-07T03:29:51;24.80;;;8.45;;
71360;SDS011;59166;48.908;1.870;2022-12-07T03:35:16;28.90;;;9.88;;
71360;SDS011;59166;48.908;1.870;2022-12-07T03:40:22;25.23;;;9.47;;
71360;SDS011;59166;48.908;1.870;2022-12-07T03:45:31;26.27;;;10.05;;
71360;SDS011;59166;48.908;1.870;2022-12-07T03:50:40;25.05;;;9.05;;
71360;SDS011;59166;48.908;1.870;2022-12-07T03:55:48;22.00;;;9.23;;
71360;SDS011;59166;48.908;1.870;2022-12-07T04:00:49;23.87;;;9.13;;
71360;SDS011;59166;48.908;1.870;2022-12-07T04:05:53;28.63;;;9.63;;
71360;SDS011;59166;48.908;1.870;2022-12-07T04:10:54;26.67;;;8.23;;
71360;SDS011;59166;48.908;1.870;2022-12-07T04:15:55;23.87;;;7.57;;
71360;SDS011;59166;48.908;1.870;2022-12-07T04:20:57;28.53;;;8.27;;
71360;SDS011;59166;48.908;1.870;2022-12-07T04:25:58;24.67;;;7.97;;
71360;SDS011;59166;48.908;1.870;2022-12-07T04:30:58;24.92;;;8.13;;
71360;SDS011;59166;48.908;1.870;2022-12-07T04:36:01;23.73;;;7.83;;
71360;SDS011;59166;48.908;1.870;2022-12-07T04:41:04;27.38;;;8.80;;
71360;SDS011;59166;48.908;1.870;2022-12-07T04:46:05;25.53;;;7.90;;
71360;SDS011;59166;48.908;1.870;2022-12-07T04:51:07;49.67;;;8.33;;
71360;SDS011;59166;48.908;1.870;2022-12-07T04:56:08;49.17;;;7.30;;
71360;SDS011;59166;48.908;1.870;2022-12-07T05:01:09;33.43;;;7.67;;
71360;SDS011;59166;48.908;1.870;2022-12-07T05:06:11;37.33;;;8.35;;
71360;SDS011;59166;48.908;1.870;2022-12-07T05:11:14;26.90;;;8.50;;
71360;SDS011;59166;48.908;1.870;2022-12-07T05:16:15;30.40;;;8.50;;
71360;SDS011;59166;48.908;1.870;2022-12-07T05:21:17;29.70;;;7.75;;
71360;SDS011;59166;48.908;1.870;2022-12-07T05:26:18;28.57;;;7.33;;
71360;SDS011;59166;48.908;1.870;2022-12-07T05:31:19;24.73;;;8.70;;
71360;SDS011;59166;48.908;1.870;2022-12-07T05:36:22;26.60;;;7.77;;
71360;SDS011;59166;48.908;1.870;2022-12-07T05:41:23;66.77;;;8.90;;
71360;SDS011;59166;48.908;1.870;2022-12-07T05:46:29;28.13;;;8.05;;
71360;SDS011;59166;48.908;1.870;2022-12-07T05:51:31;19.73;;;7.40;;
71360;SDS011;59166;48.908;1.870;2022-12-07T05:56:32;28.52;;;7.80;;
71360;SDS011;59166;48.908;1.870;2022-12-07T06:01:32;28.33;;;8.18;;
71360;SDS011;59166;48.908;1.870;2022-12-07T06:06:35;21.87;;;8.37;;
71360;SDS011;59166;48.908;1.870;2022-12-07T06:11:35;24.85;;;8.07;;
71360;SDS011;59166;48.908;1.870;2022-12-07T06:16:36;28.37;;;8.47;;
71360;SDS011;59166;48.908;1.870;2022-12-07T06:21:39;22.63;;;8.50;;
71360;SDS011;59166;48.908;1.870;2022-12-07T06:26:40;28.27;;;8.00;;
71360;SDS011;59166;48.908;1.870;2022-12-07T06:31:41;26.98;;;7.72;;
71360;SDS011;59166;48.908;1.870;2022-12-07T06:36:43;27.67;;;7.47;;
71360;SDS011;59166;48.908;1.870;2022-12-07T06:41:45;23.33;;;7.40;;
71360;SDS011;59166;48.908;1.870;2022-12-07T06:46:46;40.55;;;7.70;;
71360;SDS011;59166;48.908;1.870;2022-12-07T06:51:48;28.00;;;7.72;;
71360;SDS011;59166;48.908;1.870;2022-12-07T06:56:49;24.97;;;8.50;;
71360;SDS011;59166;48.908;1.870;2022-12-07T07:01:50;25.67;;;8.50;;
71360;SDS011;59166;48.908;1.870;2022-12-07T07:06:52;26.93;;;8.00;;
71360;SDS011;59166;48.908;1.870;2022-12-07T07:11:53;24.35;;;8.23;;
71360;SDS011;59166;48.908;1.870;2022-12-07T07:16:54;27.13;;;9.25;;
71360;SDS011;59166;48.908;1.870;2022-12-07T07:21:56;25.03;;;8.97;;
71360;SDS011;59166;48.908;1.870;2022-12-07T07:26:57;25.48;;;8.27;;
71360;SDS011;59166;48.908;1.870;2022-12-07T07:31:58;20.07;;;7.60;;
71360;SDS011;59166;48.908;1.870;2022-12-07T07:37:01;21.13;;;7.50;;
71360;SDS011;59166;48.908;1.870;2022-12-07T07:42:02;21.70;;;7.60;;
71360;SDS011;59166;48.908;1.870;2022-12-07T07:47:03;19.70;;;6.90;;
71360;SDS011;59166;48.908;1.870;2022-12-07T07:52:06;17.75;;;7.35;;
71360;SDS011;59166;48.908;1.870;2022-12-07T07:57:07;21.13;;;7.73;;
71360;SDS011;59166;48.908;1.870;2022-12-07T08:02:08;26.48;;;8.60;;
71360;SDS011;59166;48.908;1.870;2022-12-07T08:07:15;31.70;;;9.88;;
71360;SDS011;59166;48.908;1.870;2022-12-07T08:12:16;29.60;;;10.07;;
71360;SDS011;59166;48.908;1.870;2022-12-07T08:17:16;33.92;;;9.68;;
71360;SDS011;59166;48.908;1.870;2022-12-07T08:22:19;26.80;;;8.77;;
71360;SDS011;59166;48.908;1.870;2022-12-07T08:27:20;31.88;;;11.20;;
71360;SDS011;59166;48.908;1.870;2022-12-07T08:32:20;34.73;;;9.73;;
71360;SDS011;59166;48.908;1.870;2022-12-07T08:37:23;33.73;;;10.97;;
71360;SDS011;59166;48.908;1.870;2022-12-07T08:42:23;26.98;;;9.73;;
71360;SDS011;59166;48.908;1.870;2022-12-07T08:47:24;26.80;;;9.70;;
71360;SDS011;59166;48.908;1.870;2022-12-07T08:52:27;23.05;;;8.40;;
71360;SDS011;59166;48.908;1.870;2022-12-07T08:57:28;24.17;;;9.18;;
71360;SDS011;59166;48.908;1.870;2022-12-07T09:02:30;23.67;;;8.93;;
71360;SDS011;59166;48.908;1.870;2022-12-07T09:07:33;23.88;;;8.25;;
71360;SDS011;59166;48.908;1.870;2022-12-07T09:12:34;26.27;;;8.95;;
71360;SDS011;59166;48.908;1.870;2022-12-07T09:17:35;24.83;;;9.37;;
71360;SDS011;59166;48.908;1.870;2022-12-07T09:22:38;28.50;;;10.75;;
71360;SDS011;59166;48.908;1.870;2022-12-07T09:27:38;23.07;;;9.23;;
71360;SDS011;59166;48.908;1.870;2022-12-07T09:32:39;23.85;;;9.32;;
71360;SDS011;59166;48.908;1.870;2022-12-07T09:37:42;22.10;;;9.10;;
71360;SDS011;59166;48.908;1.870;2022-12-07T09:42:43;23.75;;;9.18;;
71360;SDS011;59166;48.908;1.870;2022-12-07T09:47:49;26.63;;;8.90;;
71360;SDS011;59166;48.908;1.870;2022-12-07T09:52:52;24.17;;;9.90;;
71360;SDS011;59166;48.908;1.870;2022-12-07T09:57:55;23.27;;;9.33;;
71360;SDS011;59166;48.908;1.870;2022-12-07T10:02:59;29.35;;;11.52;;
71360;SDS011;59166;48.908;1.870;2022-12-07T10:08:05;27.60;;;10.60;;
71360;SDS011;59166;48.908;1.870;2022-12-07T10:13:08;26.40;;;10.90;;
71360;SDS011;59166;48.908;1.870;2022-12-07T10:18:17;27.13;;;10.93;;
71360;SDS011;59166;48.908;1.870;2022-12-07T10:23:21;30.77;;;11.82;;
71360;SDS011;59166;48.908;1.870;2022-12-07T10:28:22;27.43;;;11.87;;
71360;SDS011;59166;48.908;1.870;2022-12-07T10:33:33;31.48;;;12.35;;
71360;SDS011;59166;48.908;1.870;2022-12-07T10:38:37;29.33;;;12.30;;
71360;SDS011;59166;48.908;1.870;2022-12-07T10:43:52;29.70;;;12.17;;
71360;SDS011;59166;48.908;1.870;2022-12-07T10:48:55;28.27;;;11.45;;
71360;SDS011;59166;48.908;1.870;2022-12-07T10:54:10;28.75;;;12.65;;
71360;SDS011;59166;48.908;1.870;2022-12-07T10:59:21;30.10;;;12.27;;
71360;SDS011;59166;48.908;1.870;2022-12-07T11:04:55;40.67;;;17.45;;
71360;SDS011;59166;48.908;1.870;2022-12-07T11:10:07;37.42;;;15.45;;
71360;SDS011;59166;48.908;1.870;2022-12-07T11:15:13;38.30;;;15.67;;
71360;SDS011;59166;48.908;1.870;2022-12-07T11:20:24;39.37;;;16.27;;
71360;SDS011;59166;48.908;1.870;2022-12-07T11:25:37;42.28;;;17.67;;
71360;SDS011;59166;48.908;1.870;2022-12-07T11:30:43;40.70;;;16.85;;
71360;SDS011;59166;48.908;1.870;2022-12-07T11:36:13;37.20;;;15.53;;
71360;SDS011;59166;48.908;1.870;2022-12-07T11:41:33;38.55;;;16.85;;
71360;SDS011;59166;48.908;1.870;2022-12-07T11:46:42;48.17;;;19.55;;
71360;SDS011;59166;48.908;1.870;2022-12-07T11:51:48;39.27;;;17.67;;
71360;SDS011;59166;48.908;1.870;2022-12-07T11:56:53;41.42;;;17.67;;
71360;SDS011;59166;48.908;1.870;2022-12-07T12:02:00;38.72;;;18.15;;
71360;SDS011;59166;48.908;1.870;2022-12-07T12:07:13;38.47;;;17.17;;
71360;SDS011;59166;48.908;1.870;2022-12-07T12:12:23;39.87;;;17.70;;
71360;SDS011;59166;48.908;1.870;2022-12-07T12:23:11;38.15;;;15.48;;
71360;SDS011;59166;48.908;1.870;2022-12-07T12:28:20;33.50;;;14.37;;
71360;SDS011;59166;48.908;1.870;2022-12-07T12:33:26;32.13;;;14.50;;
71360;SDS011;59166;48.908;1.870;2022-12-07T12:38:30;27.92;;;12.43;;
71360;SDS011;59166;48.908;1.870;2022-12-07T12:43:45;28.93;;;11.80;;
71360;SDS011;59166;48.908;1.870;2022-12-07T12:48:48;29.73;;;12.27;;
71360;SDS011;59166;48.908;1.870;2022-12-07T12:53:49;26.45;;;11.93;;
71360;SDS011;59166;48.908;1.870;2022-12-07T12:58:51;30.77;;;12.23;;
71360;SDS011;59166;48.908;1.870;2022-12-07T13:04:40;28.17;;;12.48;;
71360;SDS011;59166;48.908;1.870;2022-12-07T13:09:51;25.52;;;10.50;;
71360;SDS011;59166;48.908;1.870;2022-12-07T13:14:55;24.40;;;11.27;;
71360;SDS011;59166;48.908;1.870;2022-12-07T13:19:58;28.90;;;12.07;;
71360;SDS011;59166;48.908;1.870;2022-12-07T13:25:02;29.27;;;12.37;;
71360;SDS011;59166;48.908;1.870;2022-12-07T13:30:11;30.50;;;13.90;;
71360;SDS011;59166;48.908;1.870;2022-12-07T13:35:28;30.70;;;13.18;;
71360;SDS011;59166;48.908;1.870;2022-12-07T13:40:30;32.63;;;13.90;;
71360;SDS011;59166;48.908;1.870;2022-12-07T13:45:33;33.63;;;13.33;;
71360;SDS011;59166;48.908;1.870;2022-12-07T13:50:34;32.00;;;13.05;;
71360;SDS011;59166;48.908;1.870;2022-12-07T13:55:35;31.03;;;13.50;;
71360;SDS011;59166;48.908;1.870;2022-12-07T14:00:37;24.27;;;10.63;;
71360;SDS011;59166;48.908;1.870;2022-12-07T14:05:40;26.35;;;11.60;;
71360;SDS011;59166;48.908;1.870;2022-12-07T14:10:52;23.40;;;10.40;;
71360;SDS011;59166;48.908;1.870;2022-12-07T14:15:57;23.08;;;8.52;;
71360;SDS011;59166;48.908;1.870;2022-12-07T14:21:02;23.08;;;9.13;;
71360;SDS011;59166;48.908;1.870;2022-12-07T14:26:05;22.63;;;8.80;;
71360;SDS011;59166;48.908;1.870;2022-12-07T14:31:12;23.27;;;9.85;;
71360;SDS011;59166;48.908;1.870;2022-12-07T14:40:49;22.17;;;9.90;;
71360;SDS011;59166;48.908;1.870;2022-12-07T14:45:50;22.50;;;10.13;;
71360;SDS011;59166;48.908;1.870;2022-12-07T14:50:52;24.52;;;9.90;;
71360;SDS011;59166;48.908;1.870;2022-12-07T14:55:54;25.90;;;10.57;;
71360;SDS011;59166;48.908;1.870;2022-12-07T15:00:55;24.57;;;10.47;;
71360;SDS011;59166;48.908;1.870;2022-12-07T15:05:56;21.23;;;9.60;;
71360;SDS011;59166;48.908;1.870;2022-12-07T15:10:59;25.17;;;8.68;;
71360;SDS011;59166;48.908;1.870;2022-12-07T15:16:00;20.97;;;9.20;;
71360;SDS011;59166;48.908;1.870;2022-12-07T15:21:01;21.80;;;8.15;;
71360;SDS011;59166;48.908;1.870;2022-12-07T15:26:03;21.33;;;7.37;;
71360;SDS011;59166;48.908;1.870;2022-12-07T15:31:04;17.55;;;7.38;;
71360;SDS011;59166;48.908;1.870;2022-12-07T15:36:20;19.70;;;7.57;;
71360;SDS011;59166;48.908;1.870;2022-12-07T15:41:24;18.23;;;7.63;;
71360;SDS011;59166;48.908;1.870;2022-12-07T15:46:28;19.60;;;7.53;;
71360;SDS011;59166;48.908;1.870;2022-12-07T15:51:30;19.85;;;7.50;;
71360;SDS011;59166;48.908;1.870;2022-12-07T15:56:32;19.20;;;7.80;;
71360;SDS011;59166;48.908;1.870;2022-12-07T16:01:33;14.98;;;6.10;;
71360;SDS011;59166;48.908;1.870;2022-12-07T16:06:34;14.38;;;4.95;;
71360;SDS011;59166;48.908;1.870;2022-12-07T16:11:36;15.67;;;6.83;;
71360;SDS011;59166;48.908;1.870;2022-12-07T16:16:37;14.80;;;5.50;;
71360;SDS011;59166;48.908;1.870;2022-12-07T16:21:38;17.20;;;7.37;;
71360;SDS011;59166;48.908;1.870;2022-12-07T16:26:41;17.70;;;7.00;;
71360;SDS011;59166;48.908;1.870;2022-12-07T16:31:42;15.77;;;6.68;;
71360;SDS011;59166;48.908;1.870;2022-12-07T16:36:42;19.33;;;9.07;;
71360;SDS011;59166;48.908;1.870;2022-12-07T16:41:44;22.10;;;9.40;;
71360;SDS011;59166;48.908;1.870;2022-12-07T16:46:45;22.87;;;9.00;;
71360;SDS011;59166;48.908;1.870;2022-12-07T16:51:48;19.60;;;8.50;;
71360;SDS011;59166;48.908;1.870;2022-12-07T16:56:51;22.60;;;8.90;;
71360;SDS011;59166;48.908;1.870;2022-12-07T17:01:54;26.23;;;10.87;;
71360;SDS011;59166;48.908;1.870;2022-12-07T17:06:54;24.90;;;10.70;;
71360;SDS011;59166;48.908;1.870;2022-12-07T17:11:57;26.57;;;10.10;;
71360;SDS011;59166;48.908;1.870;2022-12-07T17:16:58;28.08;;;12.48;;
71360;SDS011;59166;48.908;1.870;2022-12-07T17:21:59;32.47;;;14.37;;
71360;SDS011;59166;48.908;1.870;2022-12-07T17:27:01;34.53;;;16.05;;
71360;SDS011;59166;48.908;1.870;2022-12-07T17:32:02;34.97;;;16.67;;
71360;SDS011;59166;48.908;1.870;2022-12-07T17:37:03;30.13;;;14.90;;
71360;SDS011;59166;48.908;1.870;2022-12-07T17:42:06;30.73;;;13.15;;
71360;SDS011;59166;48.908;1.870;2022-12-07T17:47:08;28.77;;;11.27;;
71360;SDS011;59166;48.908;1.870;2022-12-07T17:52:09;28.27;;;11.18;;
71360;SDS011;59166;48.908;1.870;2022-12-07T17:57:11;26.27;;;10.50;;
71360;SDS011;59166;48.908;1.870;2022-12-07T18:02:12;24.20;;;9.77;;
71360;SDS011;59166;48.908;1.870;2022-12-07T18:07:13;20.73;;;8.63;;
71360;SDS011;59166;48.908;1.870;2022-12-07T18:12:15;23.67;;;9.17;;
71360;SDS011;59166;48.908;1.870;2022-12-07T18:17:16;26.88;;;10.15;;
71360;SDS011;59166;48.908;1.870;2022-12-07T18:22:18;31.17;;;11.00;;
71360;SDS011;59166;48.908;1.870;2022-12-07T18:27:20;24.80;;;9.60;;
71360;SDS011;59166;48.908;1.870;2022-12-07T18:32:21;24.75;;;10.20;;
71360;SDS011;59166;48.908;1.870;2022-12-07T18:37:22;23.98;;;10.30;;
71360;SDS011;59166;48.908;1.870;2022-12-07T18:42:25;24.23;;;10.17;;
71360;SDS011;59166;48.908;1.870;2022-12-07T18:47:25;25.75;;;11.07;;
71360;SDS011;59166;48.908;1.870;2022-12-07T18:52:26;29.50;;;11.47;;
71360;SDS011;59166;48.908;1.870;2022-12-07T18:57:29;23.02;;;9.80;;
71360;SDS011;59166;48.908;1.870;2022-12-07T19:02:31;27.00;;;11.57;;
71360;SDS011;59166;48.908;1.870;2022-12-07T19:07:32;37.60;;;15.87;;
71360;SDS011;59166;48.908;1.870;2022-12-07T19:12:35;65.50;;;27.88;;
71360;SDS011;59166;48.908;1.870;2022-12-07T19:17:36;65.77;;;28.47;;
71360;SDS011;59166;48.908;1.870;2022-12-07T19:22:37;42.88;;;20.55;;
71360;SDS011;59166;48.908;1.870;2022-12-07T19:27:39;39.65;;;18.05;;
71360;SDS011;59166;48.908;1.870;2022-12-07T19:32:40;42.70;;;17.67;;
71360;SDS011;59166;48.908;1.870;2022-12-07T19:37:41;47.22;;;20.38;;
71360;SDS011;59166;48.908;1.870;2022-12-07T19:42:43;44.57;;;18.97;;
71360;SDS011;59166;48.908;1.870;2022-12-07T19:47:44;47.67;;;20.50;;
71360;SDS011;59166;48.908;1.870;2022-12-07T19:52:45;44.77;;;18.77;;
71360;SDS011;59166;48.908;1.870;2022-12-07T19:57:47;40.33;;;15.97;;
71360;SDS011;59166;48.908;1.870;2022-12-07T20:02:50;52.75;;;20.90;;
71360;SDS011;59166;48.908;1.870;2022-12-07T20:07:59;50.97;;;19.97;;
71360;SDS011;59166;48.908;1.870;2022-12-07T20:30:06;29.63;;;11.77;;
71360;SDS011;59166;48.908;1.870;2022-12-07T20:35:21;42.42;;;15.48;;
71360;SDS011;59166;48.908;1.870;2022-12-07T20:40:25;70.07;;;26.92;;
71360;SDS011;59166;48.908;1.870;2022-12-07T20:45:25;75.03;;;33.07;;
71360;SDS011;59166;48.908;1.870;2022-12-07T20:50:28;67.85;;;30.77;;
71360;SDS011;59166;48.908;1.870;2022-12-07T20:55:31;50.80;;;22.37;;
71360;SDS011;59166;48.908;1.870;2022-12-07T21:00:34;57.97;;;27.25;;
71360;SDS011;59166;48.908;1.870;2022-12-07T21:05:41;57.78;;;26.77;;
71360;SDS011;59166;48.908;1.870;2022-12-07T21:10:48;53.07;;;25.50;;
71360;SDS011;59166;48.908;1.870;2022-12-07T21:16:08;73.22;;;33.22;;
71360;SDS011;59166;48.908;1.870;2022-12-07T21:21:18;65.50;;;32.20;;
71360;SDS011;59166;48.908;1.870;2022-12-07T21:26:20;68.80;;;31.77;;
71360;SDS011;59166;48.908;1.870;2022-12-07T21:31:23;66.37;;;32.83;;
71360;SDS011;59166;48.908;1.870;2022-12-07T21:36:25;59.92;;;27.67;;
71360;SDS011;59166;48.908;1.870;2022-12-07T21:41:26;56.53;;;26.17;;
71360;SDS011;59166;48.908;1.870;2022-12-07T21:46:45;59.53;;;25.77;;
71360;SDS011;59166;48.908;1.870;2022-12-07T21:51:50;57.17;;;25.10;;
71360;SDS011;59166;48.908;1.870;2022-12-07T21:56:54;48.80;;;21.25;;
71360;SDS011;59166;48.908;1.870;2022-12-07T22:01:56;38.40;;;19.20;;
71360;SDS011;59166;48.908;1.870;2022-12-07T22:07:04;42.20;;;19.65;;
71360;SDS011;59166;48.908;1.870;2022-12-07T22:12:06;42.90;;;19.60;;
71360;SDS011;59166;48.908;1.870;2022-12-07T22:17:06;45.90;;;19.33;;
71360;SDS011;59166;48.908;1.870;2022-12-07T22:22:10;42.17;;;18.47;;
71360;SDS011;59166;48.908;1.870;2022-12-07T22:27:13;45.75;;;22.65;;
71360;SDS011;59166;48.908;1.870;2022-12-07T22:32:14;50.23;;;23.63;;
71360;SDS011;59166;48.908;1.870;2022-12-07T22:37:16;46.08;;;23.30;;
71360;SDS011;59166;48.908;1.870;2022-12-07T22:42:17;49.57;;;23.87;;
71360;SDS011;59166;48.908;1.870;2022-12-07T22:47:17;53.53;;;25.17;;
71360;SDS011;59166;48.908;1.870;2022-12-07T22:52:20;60.33;;;25.97;;
71360;SDS011;59166;48.908;1.870;2022-12-07T22:57:22;53.92;;;24.50;;
71360;SDS011;59166;48.908;1.870;2022-12-07T23:02:23;51.60;;;24.87;;
71360;SDS011;59166;48.908;1.870;2022-12-07T23:07:25;55.15;;;25.35;;
71360;SDS011;59166;48.908;1.870;2022-12-07T23:12:26;54.27;;;24.87;;
71360;SDS011;59166;48.908;1.870;2022-12-07T23:17:27;51.90;;;24.00;;
71360;SDS011;59166;48.908;1.870;2022-12-07T23:22:29;46.70;;;22.27;;
71360;SDS011;59166;48.908;1.870;2022-12-07T23:27:30;49.90;;;23.60;;
71360;SDS011;59166;48.908;1.870;2022-12-07T23:32:31;49.97;;;23.40;;
71360;SDS011;59166;48.908;1.870;2022-12-07T23:37:33;49.50;;;21.53;;
71360;SDS011;59166;48.908;1.870;2022-12-07T23:42:34;48.53;;;22.73;;
71360;SDS011;59166;48.908;1.870;2022-12-07T23:47:34;54.47;;;24.20;;
71360;SDS011;59166;48.908;1.870;2022-12-07T23:52:37;52.63;;;24.60;;
71360;SDS011;59166;48.908;1.870;2022-12-07T23:57:37;50.10;;;22.47;;
